createdAt,value
2018-01-11T00:01:57.115Z,90.03
2018-01-11T00:04:24.581Z,76.97
2018-01-11T00:06:52.048Z,81.43
2018-01-11T00:09:19.512Z,70.43
2018-01-11T00:11:47.771Z,76.72
2018-01-11T00:14:15.336Z,76.25
2018-01-11T00:16:42.800Z,80.87
2018-01-11T00:19:10.272Z,64.50
2018-01-11T00:21:38.521Z,74.10
2018-01-11T00:24:06.753Z,61.35
2018-01-11T00:26:34.242Z,83.87
2018-01-11T00:29:01.708Z,67.82
2018-01-11T00:31:29.168Z,77.40
2018-01-11T00:33:56.629Z,81.87
2018-01-11T00:36:24.133Z,76.05
2018-01-11T00:38:51.592Z,71.07
2018-01-11T00:41:19.052Z,71.10
2018-01-11T00:43:46.555Z,82.28
2018-01-11T00:46:14.021Z,73.20
2018-01-11T00:48:42.261Z,81.28
2018-01-11T00:51:09.724Z,84.78
2018-01-11T00:53:37.305Z,71.47
2018-01-11T00:56:04.768Z,75.87
2018-01-11T00:58:33.086Z,94.87
2018-01-11T01:01:00.548Z,77.93
2018-01-11T01:03:28.057Z,122.00
2018-01-11T01:05:56.324Z,117.25
2018-01-11T01:08:23.792Z,75.85
2018-01-11T01:10:52.017Z,75.82
2018-01-11T01:13:19.513Z,107.53
2018-01-11T01:15:47.022Z,89.65
2018-01-11T01:18:14.482Z,73.00
2018-01-11T01:20:41.944Z,82.25
2018-01-11T01:23:09.404Z,71.60
2018-01-11T01:25:36.888Z,70.93
2018-01-11T01:28:04.353Z,75.72
2018-01-11T01:30:31.825Z,87.05
2018-01-11T01:33:00.052Z,71.35
2018-01-11T01:35:27.513Z,68.82
2018-01-11T01:37:55.000Z,62.22
2018-01-11T01:40:22.609Z,79.97
2018-01-11T01:42:50.066Z,73.62
2018-01-11T01:45:17.533Z,85.25
2018-01-11T01:47:44.992Z,63.55
2018-01-11T01:50:12.457Z,80.20
2018-01-11T01:52:39.941Z,79.55
2018-01-11T01:55:07.509Z,73.32
2018-01-11T01:57:34.977Z,81.82
2018-01-11T02:00:03.234Z,68.35
2018-01-11T02:02:30.843Z,68.05
2018-01-11T02:04:58.292Z,65.78
2018-01-11T02:07:25.757Z,73.93
2018-01-11T02:09:53.468Z,62.53
2018-01-11T02:12:21.026Z,65.65
2018-01-11T02:14:48.580Z,78.62
2018-01-11T02:17:16.049Z,95.87
2018-01-11T02:19:43.508Z,78.57
2018-01-11T02:22:11.744Z,70.72
2018-01-11T02:24:39.213Z,74.40
2018-01-11T02:27:06.781Z,63.92
2018-01-11T02:29:34.342Z,85.55
2018-01-11T02:32:01.805Z,72.57
2018-01-11T02:34:29.275Z,67.68
2018-01-11T02:36:57.504Z,68.37
2018-01-11T02:39:24.970Z,86.53
2018-01-11T02:41:52.439Z,78.25
2018-01-11T02:44:20.009Z,69.05
2018-01-11T02:47:05.112Z,76.15
2018-01-11T02:49:32.589Z,56.08
2018-01-11T02:52:00.060Z,69.32
2018-01-11T02:54:27.540Z,59.70
2018-01-11T02:56:55.110Z,64.43
2018-01-11T02:59:22.668Z,60.67
2018-01-11T03:01:50.133Z,64.30
2018-01-11T03:04:18.387Z,70.12
2018-01-11T03:06:45.953Z,60.85
2018-01-11T03:09:13.417Z,61.17
2018-01-11T03:11:40.968Z,67.10
2018-01-11T03:14:08.428Z,71.03
2018-01-11T03:16:35.979Z,64.12
2018-01-11T03:19:03.541Z,66.93
2018-01-11T03:21:31.105Z,58.05
2018-01-11T03:23:58.569Z,65.07
2018-01-11T03:26:26.036Z,60.58
2018-01-11T03:28:54.263Z,64.95
2018-01-11T03:31:21.729Z,66.70
2018-01-11T03:33:49.210Z,74.30
2018-01-11T03:36:16.756Z,66.35
2018-01-11T03:38:44.275Z,68.70
2018-01-11T03:41:11.736Z,64.93
2018-01-11T03:43:39.201Z,71.00
2018-01-11T03:46:06.691Z,71.40
2018-01-11T03:48:34.247Z,63.25
2018-01-11T03:51:01.712Z,62.22
2018-01-11T03:53:29.171Z,68.97
2018-01-11T03:55:57.404Z,73.50
2018-01-11T03:58:24.868Z,77.43
2018-01-11T04:00:53.219Z,78.97
2018-01-11T04:03:20.788Z,84.37
2018-01-11T04:05:48.738Z,73.43
2018-01-11T04:08:16.344Z,80.30
2018-01-11T04:10:43.796Z,83.10
2018-01-11T04:13:11.485Z,95.25
2018-01-11T04:15:38.946Z,78.70
2018-01-11T04:18:07.228Z,82.93
2018-01-11T04:20:35.496Z,81.30
2018-01-11T04:23:02.948Z,74.20
2018-01-11T04:25:30.508Z,80.95
2018-01-11T04:27:57.969Z,92.07
2018-01-11T04:30:25.436Z,98.90
2018-01-11T04:32:53.660Z,96.10
2018-01-11T04:35:21.136Z,96.32
2018-01-11T04:37:48.600Z,78.28
2018-01-11T04:40:16.161Z,69.35
2018-01-11T04:42:43.629Z,69.65
2018-01-11T04:45:11.185Z,75.10
2018-01-11T04:47:38.728Z,60.60
2018-01-11T04:50:06.292Z,58.50
2018-01-11T04:52:33.849Z,65.10
2018-01-11T04:55:01.412Z,68.70
2018-01-11T04:57:28.964Z,60.95
2018-01-11T04:59:56.429Z,63.45
2018-01-11T05:02:23.985Z,76.22
2018-01-11T05:04:51.449Z,64.43
2018-01-11T05:07:18.916Z,68.22
2018-01-11T05:09:47.177Z,61.88
2018-01-11T05:12:14.719Z,65.20
2018-01-11T05:14:42.177Z,59.45
2018-01-11T05:17:09.657Z,66.15
2018-01-11T05:19:37.928Z,70.03
2018-01-11T05:22:05.388Z,54.92
2018-01-11T05:24:32.848Z,62.08
2018-01-11T05:27:01.094Z,65.15
2018-01-11T05:29:28.556Z,57.20
2018-01-11T05:31:56.077Z,57.78
2018-01-11T05:34:23.544Z,60.15
2018-01-11T05:36:51.000Z,55.83
2018-01-11T05:39:18.508Z,58.30
2018-01-11T05:41:46.012Z,73.22
2018-01-11T05:44:13.529Z,82.15
2018-01-11T05:46:41.756Z,72.32
2018-01-11T05:49:09.237Z,64.87
2018-01-11T05:51:36.809Z,63.38
2018-01-11T05:54:04.274Z,67.60
2018-01-11T05:56:32.558Z,60.00
2018-01-11T05:58:59.982Z,63.05
2018-01-11T06:01:27.509Z,62.17
2018-01-11T06:03:54.973Z,64.28
2018-01-11T06:06:22.456Z,53.60
2018-01-11T06:08:50.021Z,58.33
2018-01-11T06:11:17.589Z,58.42
2018-01-11T06:13:45.064Z,65.97
2018-01-11T06:16:13.296Z,65.55
2018-01-11T06:18:40.757Z,61.08
2018-01-11T06:21:08.332Z,60.08
2018-01-11T06:23:36.568Z,67.82
2018-01-11T06:26:05.343Z,56.90
2018-01-11T06:28:32.821Z,63.15
2018-01-11T06:31:00.289Z,60.75
2018-01-11T06:33:27.862Z,65.93
2018-01-11T06:35:55.328Z,56.90
2018-01-11T06:38:22.797Z,60.08
2018-01-11T06:40:51.029Z,62.13
2018-01-11T06:43:18.494Z,65.90
2018-01-11T06:45:45.992Z,65.65
2018-01-11T06:48:14.221Z,61.10
2018-01-11T06:50:41.806Z,59.78
2018-01-11T06:53:09.362Z,58.00
2018-01-11T06:55:36.928Z,63.00
2018-01-11T06:58:04.481Z,49.72
2018-01-11T07:00:32.041Z,73.93
2018-01-11T07:02:59.502Z,63.20
2018-01-11T07:05:26.970Z,61.25
2018-01-11T07:07:55.220Z,63.15
2018-01-11T07:10:22.700Z,62.60
2018-01-11T07:12:51.045Z,56.22
2018-01-11T07:15:18.505Z,72.05
2018-01-11T07:17:45.978Z,63.30
2018-01-11T07:20:13.533Z,52.10
2018-01-11T07:22:41.008Z,55.15
2018-01-11T07:25:09.241Z,54.08
2018-01-11T07:27:36.720Z,60.17
2018-01-11T07:30:04.190Z,55.55
2018-01-11T07:32:32.418Z,55.63
2018-01-11T07:34:59.900Z,60.50
2018-01-11T07:37:27.377Z,59.95
2018-01-11T07:39:55.605Z,55.05
2018-01-11T07:42:23.089Z,60.28
2018-01-11T07:44:50.561Z,59.53
2018-01-11T07:47:18.041Z,67.85
2018-01-11T07:49:45.508Z,59.83
2018-01-11T07:52:12.964Z,64.80
2018-01-11T07:54:40.532Z,59.95
2018-01-11T07:57:08.041Z,54.83
2018-01-11T07:59:35.486Z,64.72
2018-01-11T08:02:02.953Z,63.72
2018-01-11T08:04:30.427Z,63.63
2018-01-11T08:06:58.644Z,61.88
2018-01-11T08:09:26.142Z,57.80
2018-01-11T08:11:53.701Z,63.97
2018-01-11T08:14:21.257Z,68.95
2018-01-11T08:16:57.128Z,63.22
2018-01-11T08:19:25.361Z,55.85
2018-01-11T08:21:52.826Z,58.97
2018-01-11T08:24:20.308Z,62.30
2018-01-11T08:26:47.768Z,52.33
2018-01-11T08:29:16.008Z,66.10
2018-01-11T08:31:43.500Z,57.80
2018-01-11T08:34:10.971Z,65.12
2018-01-11T08:36:39.192Z,62.88
2018-01-11T08:39:06.657Z,54.13
2018-01-11T08:41:34.135Z,55.35
2018-01-11T08:44:01.696Z,60.80
2018-01-11T08:46:29.161Z,55.42
2018-01-11T08:48:58.805Z,51.72
2018-01-11T08:51:26.263Z,58.25
2018-01-11T08:53:53.736Z,61.22
2018-01-11T08:56:21.321Z,51.20
2018-01-11T08:58:48.815Z,62.10
2018-01-11T09:01:17.036Z,54.05
2018-01-11T09:03:44.496Z,60.45
2018-01-11T09:06:12.064Z,62.88
2018-01-11T09:08:39.522Z,55.55
2018-01-11T09:11:07.369Z,59.47
2018-01-11T09:13:35.093Z,51.92
2018-01-11T09:16:03.329Z,47.83
2018-01-11T09:18:30.904Z,46.08
2018-01-11T09:20:58.613Z,49.65
2018-01-11T09:23:26.113Z,57.80
2018-01-11T09:25:54.357Z,43.30
2018-01-11T09:28:21.822Z,55.40
2018-01-11T09:30:52.116Z,51.72
2018-01-11T09:33:19.588Z,56.17
2018-01-11T09:35:48.041Z,47.80
2018-01-11T09:38:16.271Z,52.35
2018-01-11T09:40:43.798Z,50.25
2018-01-11T09:43:11.268Z,50.08
2018-01-11T09:45:38.736Z,56.72
2018-01-11T09:48:06.314Z,59.55
2018-01-11T09:50:33.822Z,45.90
2018-01-11T09:53:02.225Z,51.37
2018-01-11T09:55:29.683Z,54.30
2018-01-11T09:57:57.144Z,49.33
2018-01-11T10:00:24.730Z,52.75
2018-01-11T10:02:52.968Z,53.42
2018-01-11T10:05:20.433Z,46.13
2018-01-11T10:07:47.892Z,45.00
2018-01-11T10:10:15.366Z,53.63
2018-01-11T10:12:42.938Z,48.05
2018-01-11T10:15:11.182Z,49.05
2018-01-11T10:17:38.638Z,53.22
2018-01-11T10:20:06.117Z,46.20
2018-01-11T10:22:33.577Z,47.55
2018-01-11T10:25:01.053Z,50.90
2018-01-11T10:27:29.285Z,55.42
2018-01-11T10:29:56.761Z,44.42
2018-01-11T10:32:24.324Z,54.30
2018-01-11T10:34:51.802Z,48.83
2018-01-11T10:37:20.060Z,46.55
2018-01-11T10:39:47.513Z,47.72
2018-01-11T10:42:15.001Z,53.10
2018-01-11T10:44:42.623Z,47.20
2018-01-11T10:47:10.184Z,54.30
2018-01-11T10:49:37.732Z,53.47
2018-01-11T10:52:05.201Z,49.25
2018-01-11T10:54:32.676Z,50.92
2018-01-11T10:57:00.920Z,47.50
2018-01-11T10:59:28.385Z,49.17
2018-01-11T11:02:01.524Z,52.03
2018-01-11T11:04:29.012Z,50.55
2018-01-11T11:06:56.483Z,48.78
2018-01-11T11:09:23.941Z,51.72
2018-01-11T11:11:52.217Z,47.22
2018-01-11T11:14:19.677Z,50.58
2018-01-11T11:16:47.143Z,49.92
2018-01-11T11:19:15.385Z,49.42
2018-01-11T11:21:42.865Z,49.80
2018-01-11T11:24:10.425Z,52.13
2018-01-11T11:26:37.984Z,53.40
2018-01-11T11:29:05.544Z,50.33
2018-01-11T11:31:33.010Z,43.25
2018-01-11T11:34:01.277Z,50.63
2018-01-11T11:36:28.740Z,49.13
2018-01-11T11:38:56.197Z,52.25
2018-01-11T11:41:24.468Z,56.15
2018-01-11T11:43:52.045Z,51.67
2018-01-11T11:46:20.294Z,45.80
2018-01-11T11:48:47.760Z,49.20
2018-01-11T11:51:15.320Z,58.40
2018-01-11T11:53:42.880Z,60.65
2018-01-11T11:56:10.431Z,62.70
2018-01-11T11:58:37.996Z,57.08
2018-01-11T12:01:05.457Z,72.57
2018-01-11T12:03:32.939Z,58.60
2018-01-11T12:06:00.430Z,61.95
2018-01-11T12:08:27.940Z,64.18
2018-01-11T12:10:56.254Z,64.43
2018-01-11T12:13:23.756Z,66.50
2018-01-11T12:15:51.313Z,70.35
2018-01-11T12:18:18.774Z,76.78
2018-01-11T12:20:46.297Z,78.60
2018-01-11T12:23:13.822Z,67.07
2018-01-11T12:25:41.288Z,72.07
2018-01-11T12:28:08.746Z,79.20
2018-01-11T12:30:36.221Z,62.85
2018-01-11T12:33:03.685Z,54.42
2018-01-11T12:35:31.152Z,54.28
2018-01-11T12:37:58.712Z,62.25
2018-01-11T12:40:26.176Z,54.15
2018-01-11T12:42:53.661Z,63.22
2018-01-11T12:45:21.967Z,56.40
2018-01-11T12:47:49.420Z,64.47
2018-01-11T12:50:16.932Z,61.25
2018-01-11T12:52:44.495Z,64.03
2018-01-11T12:55:12.016Z,64.68
2018-01-11T12:57:41.434Z,69.18
2018-01-11T13:00:09.753Z,55.92
2018-01-11T13:02:38.000Z,59.83
2018-01-11T13:05:05.460Z,55.40
2018-01-11T13:07:32.941Z,56.42
2018-01-11T13:10:01.172Z,59.95
2018-01-11T13:12:28.652Z,56.10
2018-01-11T13:14:56.108Z,58.50
2018-01-11T13:17:23.659Z,57.15
2018-01-11T13:19:51.217Z,61.58
2018-01-11T13:22:18.686Z,64.97
2018-01-11T13:24:46.916Z,63.33
2018-01-11T13:27:14.393Z,57.38
2018-01-11T13:29:41.964Z,58.10
2018-01-11T13:32:09.437Z,55.55
2018-01-11T13:34:37.696Z,64.05
2018-01-11T13:37:05.260Z,69.60
2018-01-11T13:39:32.730Z,58.65
2018-01-11T13:42:00.977Z,70.55
2018-01-11T13:44:28.441Z,61.37
2018-01-11T13:46:56.101Z,65.55
2018-01-11T13:49:23.663Z,60.95
2018-01-11T13:51:51.128Z,59.80
2018-01-11T13:54:18.676Z,57.53
2018-01-11T13:56:46.133Z,62.35
2018-01-11T13:59:14.373Z,61.85
2018-01-11T14:01:41.833Z,57.38
2018-01-11T14:04:09.301Z,51.80
2018-01-11T14:06:36.780Z,62.47
2018-01-11T14:09:04.244Z,59.08
2018-01-11T14:11:31.743Z,60.28
2018-01-11T14:13:59.228Z,50.05
2018-01-11T14:16:26.724Z,54.35
2018-01-11T14:18:54.988Z,52.47
2018-01-11T14:21:22.444Z,54.42
2018-01-11T14:23:49.908Z,67.12
2018-01-11T14:26:17.399Z,53.25
2018-01-11T14:28:44.872Z,52.40
2018-01-11T14:31:12.376Z,53.20
2018-01-11T14:33:39.936Z,52.72
2018-01-11T14:36:07.392Z,60.03
2018-01-11T14:38:34.955Z,53.78
2018-01-11T14:41:02.437Z,49.05
2018-01-11T14:43:29.917Z,54.35
2018-01-11T14:45:57.433Z,58.28
2018-01-11T14:48:25.705Z,57.05
2018-01-11T14:50:53.174Z,54.13
2018-01-11T14:53:21.413Z,54.65
2018-01-11T14:55:50.408Z,61.00
2018-01-11T14:58:17.875Z,55.92
2018-01-11T15:00:45.340Z,57.03
2018-01-11T15:03:13.608Z,45.53
2018-01-11T15:05:41.076Z,58.55
2018-01-11T15:08:09.312Z,56.45
2018-01-11T15:10:36.772Z,52.55
2018-01-11T15:13:04.244Z,54.25
2018-01-11T15:15:31.717Z,57.65
2018-01-11T15:17:59.183Z,69.43
2018-01-11T15:20:27.404Z,55.83
2018-01-11T15:22:54.877Z,64.95
2018-01-11T15:25:22.344Z,63.78
2018-01-11T15:27:49.820Z,61.13
2018-01-11T15:30:17.318Z,71.43
2018-01-11T15:32:44.792Z,66.82
2018-01-11T15:35:12.249Z,72.55
2018-01-11T15:37:39.716Z,77.45
2018-01-11T15:40:07.179Z,72.15
2018-01-11T15:42:34.744Z,72.32
2018-01-11T15:45:02.304Z,72.22
2018-01-11T15:47:29.781Z,76.68
2018-01-11T15:49:58.017Z,71.68
2018-01-11T15:52:25.474Z,82.25
2018-01-11T15:54:53.009Z,62.80
2018-01-11T15:57:20.507Z,75.12
2018-01-11T15:59:48.024Z,64.47
2018-01-11T16:02:15.560Z,67.60
2018-01-11T16:04:43.789Z,65.05
2018-01-11T16:07:11.360Z,82.43
2018-01-11T16:09:38.837Z,68.65
2018-01-11T16:12:07.150Z,71.85
2018-01-11T16:14:34.617Z,76.07
2018-01-11T16:17:02.108Z,73.18
2018-01-11T16:19:29.573Z,71.87
2018-01-11T16:21:57.039Z,57.15
2018-01-11T16:24:24.673Z,56.42
2018-01-11T16:26:52.141Z,60.58
2018-01-11T16:29:19.608Z,59.83
2018-01-11T16:31:47.064Z,58.72
2018-01-11T16:34:14.613Z,66.53
2018-01-11T16:36:42.164Z,57.00
2018-01-11T16:39:09.621Z,68.20
2018-01-11T16:41:37.185Z,64.78
2018-01-11T16:44:04.775Z,58.40
2018-01-11T16:46:32.268Z,60.53
2018-01-11T16:48:59.742Z,74.78
2018-01-11T16:51:27.213Z,71.55
2018-01-11T16:53:54.712Z,68.95
2018-01-11T16:56:22.189Z,56.33
2018-01-11T16:58:49.700Z,60.17
2018-01-11T17:01:17.249Z,56.70
2018-01-11T17:03:44.760Z,53.20
2018-01-11T17:06:12.229Z,54.22
2018-01-11T17:08:39.792Z,55.90
2018-01-11T17:11:07.255Z,55.12
2018-01-11T17:13:34.732Z,51.17
2018-01-11T17:16:02.224Z,42.35
2018-01-11T17:18:29.750Z,45.10
2018-01-11T17:20:57.312Z,49.42
2018-01-11T17:23:25.561Z,53.72
2018-01-11T17:25:53.042Z,45.67
2018-01-11T17:28:20.520Z,43.42
2018-01-11T17:30:48.745Z,44.80
2018-01-11T17:33:17.949Z,45.35
2018-01-11T17:35:45.406Z,53.15
2018-01-11T17:38:12.881Z,49.65
2018-01-11T17:40:40.346Z,56.30
2018-01-11T17:43:07.906Z,50.80
2018-01-11T17:45:35.461Z,51.67
2018-01-11T17:48:03.032Z,46.92
2018-01-11T17:50:30.504Z,58.20
2018-01-11T17:52:58.041Z,56.22
2018-01-11T17:55:25.526Z,55.33
2018-01-11T17:57:53.754Z,54.20
2018-01-11T18:00:21.233Z,49.05
2018-01-11T18:02:48.712Z,59.85
2018-01-11T18:05:16.962Z,58.15
2018-01-11T18:07:44.423Z,51.65
2018-01-11T18:10:12.661Z,57.35
2018-01-11T18:12:40.156Z,54.25
2018-01-11T18:15:07.614Z,51.22
2018-01-11T18:17:35.072Z,54.60
2018-01-11T18:20:03.349Z,50.03
2018-01-11T18:22:31.587Z,62.22
2018-01-11T18:24:59.051Z,59.30
2018-01-11T18:27:26.552Z,54.38
2018-01-11T18:29:54.096Z,59.30
2018-01-11T18:32:22.370Z,51.47
2018-01-11T18:34:49.828Z,52.50
2018-01-11T18:37:18.100Z,54.63
2018-01-11T18:39:46.336Z,58.45
2018-01-11T18:42:13.812Z,56.95
2018-01-11T18:44:41.368Z,50.50
2018-01-11T18:47:09.623Z,48.03
2018-01-11T18:49:37.285Z,54.17
2018-01-11T18:52:04.940Z,50.97
2018-01-11T18:54:32.496Z,47.65
2018-01-11T18:57:00.570Z,60.35
2018-01-11T18:59:28.062Z,50.60
2018-01-11T19:01:56.244Z,60.00
2018-01-11T19:04:24.480Z,61.30
2018-01-11T19:06:51.960Z,73.07
2018-01-11T19:09:19.533Z,65.25
2018-01-11T19:11:46.991Z,62.75
2018-01-11T19:14:14.468Z,66.00
2018-01-11T19:16:42.694Z,56.97
2018-01-11T19:19:10.169Z,59.45
2018-01-11T19:21:37.633Z,76.97
2018-01-11T19:24:05.100Z,79.03
2018-01-11T19:26:33.337Z,61.20
2018-01-11T19:29:00.813Z,62.15
2018-01-11T19:31:28.301Z,65.60
2018-01-11T19:33:56.535Z,61.97
2018-01-11T19:36:23.995Z,62.62
2018-01-11T19:38:51.568Z,56.55
2018-01-11T19:41:19.126Z,61.63
2018-01-11T19:43:48.579Z,63.65
2018-01-11T19:46:16.032Z,59.30
2018-01-11T19:48:43.544Z,64.85
2018-01-11T19:51:11.009Z,56.83
2018-01-11T19:53:39.248Z,60.12
2018-01-11T19:56:06.729Z,63.70
2018-01-11T19:58:34.266Z,61.20
2018-01-11T20:01:02.503Z,55.90
2018-01-11T20:03:29.959Z,57.88
2018-01-11T20:05:57.501Z,54.78
2018-01-11T20:08:25.757Z,61.42
2018-01-11T20:10:53.269Z,65.37
2018-01-11T20:13:20.801Z,55.50
2018-01-11T20:15:49.025Z,56.83
2018-01-11T20:18:16.660Z,62.67
2018-01-11T20:20:44.169Z,56.80
2018-01-11T20:23:11.633Z,60.95
2018-01-11T20:25:39.866Z,64.80
2018-01-11T20:28:07.339Z,64.53
2018-01-11T20:30:34.823Z,68.07
2018-01-11T20:33:03.072Z,64.70
2018-01-11T20:35:30.576Z,63.65
2018-01-11T20:37:58.047Z,84.50
2018-01-11T20:40:25.501Z,80.68
2018-01-11T20:42:53.022Z,77.65
2018-01-11T20:45:21.280Z,78.90
2018-01-11T20:47:48.753Z,97.43
2018-01-11T20:50:16.250Z,81.47
2018-01-11T20:52:43.757Z,88.90
2018-01-11T20:55:11.316Z,81.82
2018-01-11T20:57:38.787Z,79.53
2018-01-11T21:00:07.025Z,91.90
2018-01-11T21:02:34.570Z,76.65
2018-01-11T21:05:02.038Z,82.75
2018-01-11T21:07:29.537Z,75.15
2018-01-11T21:09:57.793Z,81.00
2018-01-11T21:12:25.358Z,72.60
2018-01-11T21:14:52.909Z,90.28
2018-01-11T21:17:20.373Z,72.97
2018-01-11T21:19:47.841Z,73.78
2018-01-11T21:22:16.071Z,74.60
2018-01-11T21:24:43.572Z,79.20
2018-01-11T21:27:11.823Z,72.80
2018-01-11T21:29:39.291Z,80.95
2018-01-11T21:32:06.840Z,86.32
2018-01-11T21:34:34.409Z,83.35
2018-01-11T21:37:01.878Z,81.30
2018-01-11T21:39:30.125Z,85.35
2018-01-11T21:41:57.586Z,82.70
2018-01-11T21:44:25.061Z,92.47
2018-01-11T21:46:52.868Z,100.05
2018-01-11T21:49:20.378Z,105.65
2018-01-11T21:51:47.842Z,96.47
2018-01-11T21:54:16.172Z,88.80
2018-01-11T21:56:44.368Z,95.57
2018-01-11T21:59:11.831Z,94.70
2018-01-11T22:01:39.312Z,107.70
2018-01-11T22:04:07.540Z,109.53
2018-01-11T22:06:35.001Z,94.37
2018-01-11T22:09:03.362Z,102.57
2018-01-11T22:11:30.828Z,121.00
2018-01-11T22:13:58.288Z,104.45
2018-01-11T22:16:25.752Z,96.12
2018-01-11T22:18:53.227Z,111.43
2018-01-11T22:21:20.676Z,85.43
2018-01-11T22:23:48.384Z,99.10
2018-01-11T22:26:15.841Z,97.12
2018-01-11T22:28:43.367Z,89.20
2018-01-11T22:31:10.918Z,87.07
2018-01-11T22:33:38.549Z,93.07
2018-01-11T22:36:06.068Z,87.40
2018-01-11T22:38:34.316Z,98.43
2018-01-11T22:41:01.781Z,109.53
2018-01-11T22:43:30.026Z,98.95
2018-01-11T22:45:57.558Z,94.65
2018-01-11T22:48:25.030Z,98.80
2018-01-11T22:50:52.496Z,95.72
2018-01-11T22:53:19.969Z,112.22
2018-01-11T22:55:47.440Z,102.43
2018-01-11T22:58:14.914Z,90.32
2018-01-11T23:00:43.197Z,98.28
2018-01-11T23:03:11.429Z,102.28
2018-01-11T23:05:39.004Z,110.85
2018-01-11T23:08:07.276Z,102.93
2018-01-11T23:10:34.887Z,101.55
2018-01-11T23:13:02.755Z,108.47
2018-01-11T23:15:30.216Z,89.87
2018-01-11T23:17:57.677Z,95.10
2018-01-11T23:20:25.145Z,98.12
2018-01-11T23:22:52.721Z,99.75
2018-01-11T23:25:20.236Z,96.57
2018-01-11T23:27:47.692Z,97.53
2018-01-11T23:30:15.165Z,96.85
2018-01-11T23:32:42.663Z,105.45
2018-01-11T23:35:10.213Z,97.45
2018-01-11T23:37:37.681Z,105.80
2018-01-11T23:40:05.224Z,94.15
2018-01-11T23:42:32.784Z,112.18
2018-01-11T23:45:00.272Z,101.03
2018-01-11T23:47:29.414Z,102.10
2018-01-11T23:49:56.882Z,102.00
2018-01-11T23:52:24.349Z,94.60
2018-01-11T23:54:51.868Z,101.47
2018-01-11T23:57:19.335Z,100.28
2018-01-11T23:59:46.792Z,94.43
